Time;durP1;ratioP1;P1;durP2;ratioP2;P2;SDS_P1;SDS_P2;PMS_P1;PMS_P2;Temp;Humidity;BMP_temperature;BMP_pressure;BME280_temperature;BME280_humidity;BME280_pressure;Samples;Min_cycle;Max_cycle;Signal;HPM_P1;HPM_P2
2021/09/24 00:01:55;;;;;;;7.60;5.53;;;27.80;99.90;;;;;;4156738;28;20045;-67
2021/09/24 00:03:59;;;;;;;7.07;5.35;;;27.80;99.90;;;;;;4141069;28;20496;-67
2021/09/24 00:06:04;;;;;;;8.82;5.95;;;27.80;99.90;;;;;;4157297;28;20045;-67
2021/09/24 00:08:09;;;;;;;11.48;4.82;;;27.70;99.90;;;;;;4145167;28;20411;-66
2021/09/24 00:10:15;;;;;;;11.90;5.32;;;27.80;99.90;;;;;;4155498;28;20439;-68
2021/09/24 00:12:19;;;;;;;7.78;4.95;;;27.80;99.90;;;;;;4142035;28;20575;-68
2021/09/24 00:14:24;;;;;;;8.20;5.35;;;27.80;99.90;;;;;;4157260;28;20041;-68
2021/09/24 00:16:29;;;;;;;7.65;4.78;;;27.80;99.90;;;;;;4154605;28;20180;-68
2021/09/24 00:18:34;;;;;;;8.77;4.80;;;27.90;99.90;;;;;;4132806;28;20050;-68
2021/09/24 00:20:39;;;;;;;5.82;4.13;;;27.80;99.90;;;;;;4156121;28;20507;-68
2021/09/24 00:22:44;;;;;;;7.07;4.72;;;27.90;99.90;;;;;;4139896;28;20041;-68
2021/09/24 00:24:48;;;;;;;6.97;4.07;;;27.90;99.90;;;;;;4156052;28;20095;-68
2021/09/24 00:26:53;;;;;;;8.55;4.35;;;27.90;99.90;;;;;;4151014;28;20057;-67
2021/09/24 00:28:58;;;;;;;5.88;4.10;;;28.00;99.90;;;;;;4149570;28;20049;-68
2021/09/24 00:31:09;;;;;;;7.88;3.97;;;27.80;99.90;;;;;;4158883;28;20044;-67
2021/09/24 00:33:14;;;;;;;11.70;4.50;;;27.70;99.90;;;;;;4155241;28;20077;-67
2021/09/24 00:35:21;;;;;;;6.20;3.97;;;27.70;99.90;;;;;;4155265;28;20041;-68
2021/09/24 00:37:28;;;;;;;7.07;4.63;;;27.80;99.90;;;;;;4152657;28;20054;-68
2021/09/24 00:39:32;;;;;;;7.03;4.40;;;27.80;99.90;;;;;;4154231;28;20049;-68
2021/09/24 00:41:37;;;;;;;7.78;3.72;;;27.70;99.90;;;;;;4173534;28;20517;-68
2021/09/24 00:43:42;;;;;;;10.52;4.50;;;27.70;99.90;;;;;;4190637;28;20075;-67
2021/09/24 00:45:47;;;;;;;9.18;4.35;;;27.70;99.90;;;;;;4190644;28;20407;-68
2021/09/24 00:47:52;;;;;;;16.90;6.38;;;27.80;99.90;;;;;;4184295;28;20049;-68
2021/09/24 00:49:57;;;;;;;12.10;5.43;;;27.80;99.90;;;;;;4187993;28;20041;-68
2021/09/24 00:52:03;;;;;;;8.88;5.18;;;27.80;99.90;;;;;;4174282;28;20056;-68
2021/09/24 00:54:08;;;;;;;11.00;4.80;;;27.80;99.90;;;;;;4190059;28;20546;-68
2021/09/24 00:56:14;;;;;;;9.85;4.70;;;27.80;99.90;;;;;;4174245;28;20471;-68
2021/09/24 00:58:21;;;;;;;11.15;4.53;;;27.80;99.90;;;;;;4177189;28;20861;-68
2021/09/24 01:00:26;;;;;;;7.63;3.83;;;27.90;99.90;;;;;;4189461;28;20072;-67
2021/09/24 01:02:32;;;;;;;4.82;4.20;;;27.70;99.90;;;;;;4172791;28;20064;-68
2021/09/24 01:04:39;;;;;;;5.82;5.00;;;27.60;99.90;;;;;;4188630;28;20562;-69
2021/09/24 01:06:44;;;;;;;9.60;6.07;;;27.60;99.90;;;;;;4185178;28;20044;-66
2021/09/24 01:09:04;;;;;;;7.75;6.03;;;27.60;99.90;;;;;;4182254;28;20147;-66
2021/09/24 01:11:08;;;;;;;11.55;6.22;;;27.70;99.90;;;;;;4189396;28;20574;-67
2021/09/24 01:13:14;;;;;;;9.13;5.15;;;27.60;99.90;;;;;;4172783;28;20135;-67
2021/09/24 01:15:19;;;;;;;5.90;4.65;;;27.70;99.90;;;;;;4170885;28;20384;-67
2021/09/24 01:17:25;;;;;;;7.15;6.13;;;27.60;99.90;;;;;;4131201;28;20104;-67
2021/09/24 01:19:31;;;;;;;6.32;4.82;;;27.70;99.90;;;;;;4162953;28;20045;-67
2021/09/24 01:21:41;;;;;;;4.88;3.85;;;27.80;99.90;;;;;;4188440;28;20102;-67
2021/09/24 01:23:46;;;;;;;5.22;4.22;;;27.80;99.90;;;;;;4187199;28;20100;-67
2021/09/24 01:25:50;;;;;;;6.85;4.25;;;27.80;99.90;;;;;;4176297;28;20459;-67
2021/09/24 01:27:55;;;;;;;5.97;4.07;;;28.00;99.90;;;;;;4166085;28;20072;-68
2021/09/24 01:30:03;;;;;;;5.35;4.10;;;28.00;99.90;;;;;;4188125;28;20051;-67
2021/09/24 01:32:09;;;;;;;6.80;3.97;;;28.00;99.90;;;;;;4193169;28;20044;-67
2021/09/24 01:34:14;;;;;;;6.95;4.15;;;28.00;99.90;;;;;;4193113;28;20044;-68
2021/09/24 01:36:19;;;;;;;6.88;3.80;;;28.00;99.90;;;;;;4192053;28;20400;-68
2021/09/24 01:38:27;;;;;;;4.07;3.42;;;27.80;99.90;;;;;;4183988;28;20253;-68
2021/09/24 01:40:31;;;;;;;7.35;3.72;;;27.90;99.90;;;;;;4192745;28;20058;-69
2021/09/24 01:42:36;;;;;;;5.30;3.45;;;28.00;99.90;;;;;;4193735;28;20041;-68
2021/09/24 01:44:45;;;;;;;10.55;4.75;;;28.10;99.90;;;;;;4192917;28;20462;-68
2021/09/24 01:46:53;;;;;;;5.93;4.30;;;28.10;99.90;;;;;;4188419;28;20125;-68
2021/09/24 01:49:00;;;;;;;6.40;4.18;;;28.10;99.90;;;;;;4186891;28;20048;-68
2021/09/24 01:51:05;;;;;;;6.03;3.88;;;28.20;99.90;;;;;;4193541;28;20131;-68
2021/09/24 01:53:10;;;;;;;7.05;3.92;;;28.20;99.90;;;;;;4193033;28;20418;-68
2021/09/24 01:55:14;;;;;;;6.88;4.05;;;28.10;99.90;;;;;;4193734;28;20036;-68
2021/09/24 01:57:19;;;;;;;7.68;3.50;;;28.20;99.90;;;;;;4185624;28;20514;-68
2021/09/24 01:59:24;;;;;;;4.45;3.20;;;28.20;99.90;;;;;;4187650;28;20132;-67
2021/09/24 02:01:29;;;;;;;5.90;3.13;;;28.00;99.90;;;;;;4191673;28;20408;-68
2021/09/24 02:03:36;;;;;;;8.20;4.22;;;28.00;99.90;;;;;;4194087;28;20415;-68
2021/09/24 02:05:42;;;;;;;5.10;3.22;;;28.00;99.90;;;;;;4192652;28;20091;-68
2021/09/24 02:07:47;;;;;;;4.88;3.63;;;28.00;99.90;;;;;;4184954;28;20098;-68
2021/09/24 02:09:51;;;;;;;7.88;3.40;;;28.10;99.90;;;;;;4188979;28;20050;-68
2021/09/24 02:11:56;;;;;;;10.10;7.65;;;28.10;99.90;;;;;;4191635;28;20052;-67
2021/09/24 02:14:05;;;;;;;6.72;4.65;;;28.10;99.90;;;;;;4194225;28;20036;-66
2021/09/24 02:16:10;;;;;;;5.95;5.07;;;28.10;99.90;;;;;;4174901;28;20041;-67
2021/09/24 02:18:15;;;;;;;7.90;2.90;;;28.10;99.90;;;;;;4166327;28;20095;-65
2021/09/24 02:20:21;;;;;;;5.40;3.00;;;28.10;99.90;;;;;;4189766;28;20040;-67
2021/09/24 02:22:28;;;;;;;6.20;3.25;;;28.10;99.90;;;;;;4193160;28;20052;-67
2021/09/24 02:24:35;;;;;;;4.22;3.10;;;28.10;99.90;;;;;;4205396;28;20149;-67
2021/09/24 02:26:45;;;;;;;4.97;2.80;;;28.20;99.90;;;;;;4187964;28;20059;-67
2021/09/24 02:28:54;;;;;;;8.68;3.03;;;28.20;99.90;;;;;;4186421;28;20036;-66
2021/09/24 02:31:00;;;;;;;2.95;2.47;;;28.10;99.90;;;;;;4191055;28;20051;-67
2021/09/24 02:33:05;;;;;;;6.03;3.10;;;28.20;99.90;;;;;;4190540;28;20041;-66
2021/09/24 02:35:10;;;;;;;5.63;3.00;;;28.20;99.90;;;;;;4193434;28;20041;-67
2021/09/24 02:37:16;;;;;;;5.47;2.42;;;28.10;99.90;;;;;;4184821;28;20051;-66
2021/09/24 02:39:27;;;;;;;4.30;2.80;;;28.20;99.90;;;;;;4183818;28;20563;-66
2021/09/24 02:41:31;;;;;;;5.03;3.22;;;28.20;99.90;;;;;;4188531;28;20363;-66
2021/09/24 02:43:36;;;;;;;4.35;2.58;;;28.10;99.90;;;;;;4192891;28;20174;-67
2021/09/24 02:45:41;;;;;;;6.22;2.53;;;28.10;99.90;;;;;;4193428;28;20049;-66
2021/09/24 02:47:45;;;;;;;4.60;2.33;;;28.10;99.90;;;;;;4181913;28;20051;-66
2021/09/24 02:49:53;;;;;;;6.15;2.65;;;27.90;99.90;;;;;;4193352;28;20060;-67
2021/09/24 02:51:58;;;;;;;4.65;2.50;;;28.00;99.90;;;;;;4193394;28;20087;-67
2021/09/24 02:54:05;;;;;;;4.10;2.70;;;28.00;99.90;;;;;;4193714;28;20380;-66
2021/09/24 02:56:11;;;;;;;3.72;2.65;;;28.00;99.90;;;;;;4191110;28;20135;-67
2021/09/24 02:58:23;;;;;;;10.35;2.88;;;28.00;99.90;;;;;;4153728;28;20135;-66
2021/09/24 03:00:27;;;;;;;7.00;2.83;;;28.10;99.90;;;;;;4188136;28;20383;-66
2021/09/24 03:02:32;;;;;;;5.15;2.80;;;28.00;99.90;;;;;;4191547;28;20121;-66
2021/09/24 03:04:37;;;;;;;7.53;2.92;;;28.00;99.90;;;;;;4191196;28;20079;-66
2021/09/24 03:06:42;;;;;;;3.97;2.45;;;28.00;99.90;;;;;;4188746;28;20601;-66
2021/09/24 03:08:46;;;;;;;3.08;2.63;;;27.90;99.90;;;;;;4185101;28;20040;-66
2021/09/24 03:11:11;;;;;;;3.75;2.65;;;27.90;99.90;;;;;;4170683;28;20068;-66
2021/09/24 03:13:16;;;;;;;5.53;2.90;;;27.90;99.90;;;;;;4174078;28;20089;-66
2021/09/24 03:15:23;;;;;;;5.45;2.78;;;28.00;99.90;;;;;;4174004;28;20049;-67
2021/09/24 03:17:42;;;;;;;5.35;3.17;;;28.00;99.90;;;;;;4164320;28;20525;-67
2021/09/24 03:19:50;;;;;;;5.65;3.00;;;28.00;99.90;;;;;;4172913;28;20037;-66
2021/09/24 03:21:54;;;;;;;6.03;3.25;;;28.10;99.90;;;;;;4171928;28;20052;-67
2021/09/24 03:24:02;;;;;;;5.93;4.03;;;28.10;99.90;;;;;;4164885;28;20534;-67
2021/09/24 03:26:07;;;;;;;7.70;4.15;;;28.10;99.90;;;;;;4173353;28;20441;-67
2021/09/24 03:28:13;;;;;;;6.85;4.50;;;28.10;99.90;;;;;;4161340;28;20045;-67
2021/09/24 03:30:18;;;;;;;7.78;4.82;;;28.30;99.90;;;;;;4171029;28;20446;-67
2021/09/24 03:32:22;;;;;;;7.95;6.10;;;28.30;99.90;;;;;;4173588;28;20082;-67
2021/09/24 03:34:28;;;;;;;10.63;6.20;;;28.30;99.90;;;;;;4173809;28;20147;-67
2021/09/24 03:36:46;;;;;;;10.23;5.47;;;28.20;99.90;;;;;;4109809;28;20390;-66
2021/09/24 03:38:50;;;;;;;8.38;5.40;;;28.10;99.90;;;;;;4110008;28;20070;-67
2021/09/24 03:40:55;;;;;;;11.55;5.90;;;28.10;99.90;;;;;;4114142;28;20140;-67
2021/09/24 03:42:59;;;;;;;12.48;5.38;;;28.10;99.90;;;;;;4139444;28;20053;-66
2021/09/24 03:45:04;;;;;;;6.03;4.70;;;28.10;99.90;;;;;;4146556;28;20054;-67
2021/09/24 03:47:12;;;;;;;8.25;4.60;;;28.10;99.90;;;;;;4132181;28;20050;-66
2021/09/24 03:49:16;;;;;;;8.43;5.20;;;28.20;99.90;;;;;;4142544;28;20093;-66
2021/09/24 03:51:21;;;;;;;11.50;4.70;;;28.20;99.90;;;;;;4147601;28;20049;-67
2021/09/24 03:53:29;;;;;;;12.13;4.75;;;28.00;99.90;;;;;;4147539;28;20053;-67
2021/09/24 03:55:34;;;;;;;9.70;4.55;;;28.10;99.90;;;;;;4146840;28;20041;-67
2021/09/24 03:57:41;;;;;;;9.60;5.20;;;28.10;99.90;;;;;;4138293;28;20972;-67
2021/09/24 03:59:46;;;;;;;10.05;4.70;;;28.00;99.90;;;;;;4139858;28;20041;-67
2021/09/24 04:01:51;;;;;;;8.13;4.95;;;28.00;99.90;;;;;;4147051;28;20045;-67
2021/09/24 04:03:56;;;;;;;10.88;5.72;;;28.10;99.90;;;;;;4147526;28;20143;-67
2021/09/24 04:06:04;;;;;;;8.95;4.47;;;28.30;99.90;;;;;;4133370;28;20402;-67
2021/09/24 04:08:08;;;;;;;9.38;5.30;;;28.30;99.90;;;;;;4132340;28;20593;-67
2021/09/24 04:10:19;;;;;;;8.88;4.32;;;28.20;99.90;;;;;;4147545;28;20076;-67
2021/09/24 04:12:24;;;;;;;8.98;3.60;;;28.10;99.90;;;;;;4139715;28;20046;-67
2021/09/24 04:14:29;;;;;;;5.38;3.50;;;28.10;99.90;;;;;;4141962;28;20125;-67
2021/09/24 04:16:33;;;;;;;7.45;3.80;;;28.00;99.90;;;;;;4143528;28;20140;-67
2021/09/24 04:18:38;;;;;;;3.72;3.20;;;28.10;99.90;;;;;;4123221;28;20198;-67
2021/09/24 04:20:47;;;;;;;5.88;3.50;;;28.10;99.90;;;;;;4146756;28;21056;-67
2021/09/24 04:22:51;;;;;;;6.13;3.40;;;28.00;99.90;;;;;;4148269;28;20483;-67
2021/09/24 04:24:59;;;;;;;4.95;3.67;;;28.00;99.90;;;;;;4150026;28;20057;-67
2021/09/24 04:27:03;;;;;;;5.18;3.90;;;28.00;99.90;;;;;;4155072;28;20136;-67
2021/09/24 04:29:11;;;;;;;5.15;3.97;;;28.10;99.90;;;;;;4183904;28;20402;-67
2021/09/24 04:31:16;;;;;;;6.70;4.13;;;28.30;99.90;;;;;;4190444;28;20040;-67
2021/09/24 04:33:40;;;;;;;4.75;3.65;;;28.20;99.90;;;;;;4191435;28;20040;-67
2021/09/24 04:36:08;;;;;;;7.60;4.32;;;28.40;99.90;;;;;;4169026;28;20129;-67
2021/09/24 04:38:17;;;;;;;5.88;4.40;;;28.40;99.90;;;;;;4158809;28;20087;-66
2021/09/24 04:40:28;;;;;;;5.13;4.10;;;28.50;99.90;;;;;;4169717;28;20072;-67
2021/09/24 04:42:35;;;;;;;6.15;4.20;;;28.40;99.90;;;;;;4155106;28;20088;-67
2021/09/24 04:45:10;;;;;;;5.50;4.70;;;28.50;99.90;;;;;;4142012;28;20100;-67
2021/09/24 04:47:18;;;;;;;14.35;4.80;;;28.60;99.90;;;;;;4144494;28;20132;-66
2021/09/24 04:49:38;;;;;;;6.30;4.18;;;28.60;99.90;;;;;;4102011;28;20085;-67
2021/09/24 04:51:44;;;;;;;5.18;4.32;;;28.80;99.90;;;;;;4105781;28;20059;-67
2021/09/24 04:54:04;;;;;;;5.80;4.57;;;28.90;99.90;;;;;;4074503;29;20059;-67
2021/09/24 04:56:12;;;;;;;6.60;4.70;;;29.00;99.90;;;;;;4069136;29;20057;-67
2021/09/24 04:58:17;;;;;;;6.88;5.20;;;28.90;99.90;;;;;;4057840;29;20040;-66
2021/09/24 05:00:22;;;;;;;9.43;5.70;;;29.10;99.90;;;;;;4070660;29;20139;-67
2021/09/24 05:02:32;;;;;;;6.22;4.82;;;29.10;99.90;;;;;;4074021;29;20146;-67
2021/09/24 05:04:37;;;;;;;6.03;4.90;;;29.00;99.90;;;;;;4075161;29;20051;-66
2021/09/24 05:06:59;;;;;;;7.80;4.82;;;28.80;99.90;;;;;;4070167;29;20111;-67
2021/09/24 05:09:06;;;;;;;5.60;4.68;;;29.00;99.90;;;;;;4067528;29;20048;-67
2021/09/24 05:11:11;;;;;;;6.85;4.57;;;29.10;99.90;;;;;;4074103;29;20075;-66
2021/09/24 05:13:18;;;;;;;6.45;3.97;;;29.10;99.90;;;;;;4075081;29;20111;-67
2021/09/24 05:15:27;;;;;;;4.15;3.60;;;29.10;99.90;;;;;;4074641;29;20044;-66
2021/09/24 05:17:54;;;;;;;3.85;3.13;;;29.20;99.90;;;;;;4064995;29;20446;-66
2021/09/24 05:19:59;;;;;;;5.45;4.15;;;29.20;99.90;;;;;;4074435;29;20078;-66
2021/09/24 05:22:03;;;;;;;4.32;3.60;;;29.20;99.90;;;;;;4073147;29;20051;-65
2021/09/24 05:24:49;;;;;;;5.30;3.70;;;29.20;99.90;;;;;;4073366;29;20488;-66
2021/09/24 05:26:54;;;;;;;6.43;3.38;;;29.20;99.90;;;;;;4088265;28;21155;-66
2021/09/24 05:28:58;;;;;;;5.25;3.05;;;29.20;99.90;;;;;;4133010;28;20116;-67
2021/09/24 05:31:23;;;;;;;3.60;3.15;;;29.20;99.90;;;;;;4138619;28;20137;-65
2021/09/24 05:33:31;;;;;;;5.25;3.03;;;29.50;99.90;;;;;;4105496;28;20043;-66
2021/09/24 05:35:46;;;;;;;4.90;2.97;;;29.60;99.90;;;;;;4107107;28;20549;-66
2021/09/24 05:38:13;;;;;;;4.32;3.10;;;29.80;99.90;;;;;;4080093;28;20521;-66
2021/09/24 05:40:18;;;;;;;2.92;2.63;;;29.60;99.90;;;;;;4067362;29;20143;-67
2021/09/24 05:42:32;;;;;;;2.70;2.30;;;29.70;99.90;;;;;;4087659;29;20118;-67
2021/09/24 05:44:37;;;;;;;4.13;2.40;;;29.50;99.90;;;;;;4083921;29;20057;-67
2021/09/24 05:47:06;;;;;;;3.40;2.30;;;29.50;99.90;;;;;;4084502;28;20054;-66
2021/09/24 05:49:20;;;;;;;3.38;2.13;;;29.50;99.90;;;;;;4052285;29;20100;-65
2021/09/24 05:51:31;;;;;;;3.20;2.40;;;29.60;99.90;;;;;;4057289;29;20665;-66
2021/09/24 05:53:58;;;;;;;2.60;1.83;;;29.70;99.90;;;;;;4041076;29;20443;-66
2021/09/24 05:56:04;;;;;;;3.70;2.45;;;29.50;99.90;;;;;;4068113;29;20052;-67
2021/09/24 05:58:09;;;;;;;2.78;1.67;;;29.40;99.90;;;;;;4062483;29;20134;-66
2021/09/24 06:00:15;;;;;;;3.63;2.00;;;29.30;99.90;;;;;;4088482;29;20075;-66
2021/09/24 06:02:20;;;;;;;3.28;2.00;;;29.40;99.90;;;;;;4072606;29;20050;-66
2021/09/24 06:04:26;;;;;;;3.55;2.00;;;29.40;99.90;;;;;;4087382;29;20047;-66
2021/09/24 06:07:10;;;;;;;3.03;1.70;;;29.30;99.90;;;;;;4083349;29;20048;-67
2021/09/24 06:09:36;;;;;;;2.17;1.50;;;29.30;99.90;;;;;;4059596;29;20044;-66
2021/09/24 06:11:41;;;;;;;3.92;1.90;;;29.30;99.90;;;;;;4072356;29;20044;-64
2021/09/24 06:14:09;;;;;;;3.85;1.80;;;29.30;99.90;;;;;;4074682;29;20503;-64
2021/09/24 06:16:17;;;;;;;2.20;1.80;;;29.50;99.90;;;;;;4088440;29;20086;-65
2021/09/24 06:18:22;;;;;;;2.95;1.92;;;29.40;99.90;;;;;;4081519;29;20043;-64
2021/09/24 06:20:35;;;;;;;2.53;1.95;;;29.30;99.90;;;;;;4090224;29;20058;-65
2021/09/24 06:22:41;;;;;;;2.53;1.90;;;29.40;99.90;;;;;;4089159;29;20051;-65
2021/09/24 06:24:46;;;;;;;2.45;1.52;;;29.40;99.90;;;;;;4102812;28;20185;-64
2021/09/24 06:27:03;;;;;;;3.05;1.95;;;29.30;99.90;;;;;;4128705;28;20088;-64
2021/09/24 06:29:07;;;;;;;4.40;1.83;;;29.40;99.90;;;;;;4128232;28;20143;-64
2021/09/24 06:31:44;;;;;;;3.78;2.13;;;29.40;99.90;;;;;;4058653;29;20287;-64
2021/09/24 06:33:57;;;;;;;2.58;1.60;;;29.50;99.90;;;;;;4058809;29;20106;-63
2021/09/24 06:36:08;;;;;;;3.10;1.63;;;29.50;99.90;;;;;;4056171;29;20111;-64
2021/09/24 06:38:12;;;;;;;3.20;2.00;;;29.40;99.90;;;;;;4049167;29;20264;-64
2021/09/24 06:40:17;;;;;;;2.78;1.83;;;29.30;99.90;;;;;;4087612;28;20843;-64
2021/09/24 06:42:21;;;;;;;2.55;1.50;;;29.50;99.90;;;;;;4115241;28;20572;-64
2021/09/24 06:44:36;;;;;;;3.67;1.70;;;29.60;99.90;;;;;;4104016;28;20129;-64
2021/09/24 06:46:47;;;;;;;6.07;2.00;;;29.40;99.90;;;;;;4101636;28;20055;-64
2021/09/24 06:48:52;;;;;;;6.47;2.22;;;29.30;99.90;;;;;;4100656;28;20078;-64
2021/09/24 06:51:04;;;;;;;4.53;1.90;;;29.40;99.90;;;;;;4106341;28;20043;-65
2021/09/24 06:53:26;;;;;;;6.32;1.70;;;29.50;99.90;;;;;;4105304;28;20054;-65
2021/09/24 06:55:50;;;;;;;3.50;1.70;;;29.60;99.90;;;;;;4117974;28;20116;-65
2021/09/24 06:57:55;;;;;;;2.67;1.98;;;29.50;99.90;;;;;;4096104;28;20628;-66
2021/09/24 07:00:12;;;;;;;2.80;1.85;;;29.70;99.90;;;;;;4120567;28;20050;-64
2021/09/24 07:02:20;;;;;;;3.45;2.30;;;29.60;99.90;;;;;;4110397;28;20190;-64
2021/09/24 07:04:45;;;;;;;4.57;2.10;;;29.50;99.90;;;;;;4148907;28;20042;-64
2021/09/24 07:06:50;;;;;;;2.90;2.30;;;29.50;99.90;;;;;;4129477;28;20141;-65
2021/09/24 07:08:58;;;;;;;3.55;2.10;;;29.70;99.90;;;;;;4130171;28;20050;-64
2021/09/24 07:11:24;;;;;;;6.80;2.10;;;29.70;99.90;;;;;;4116864;28;20058;-65
2021/09/24 07:13:37;;;;;;;2.92;2.30;;;29.60;99.90;;;;;;4120985;28;20052;-65
2021/09/24 07:16:27;;;;;;;4.18;2.58;;;29.70;99.90;;;;;;4072038;28;20562;-64
2021/09/24 07:18:40;;;;;;;2.88;2.30;;;29.70;99.90;;;;;;4064138;29;20106;-65
2021/09/24 07:20:55;;;;;;;3.25;2.05;;;29.70;99.90;;;;;;4074262;29;20177;-64
2021/09/24 07:23:02;;;;;;;3.15;2.10;;;29.80;99.90;;;;;;4073894;29;20051;-64
2021/09/24 07:25:10;;;;;;;3.78;2.45;;;29.90;99.90;;;;;;4073771;29;20203;-64
2021/09/24 07:27:34;;;;;;;5.47;2.92;;;30.00;99.90;;;;;;4067396;29;20051;-65
2021/09/24 07:29:49;;;;;;;4.82;2.80;;;29.90;99.90;;;;;;4104139;28;20050;-64
2021/09/24 07:31:54;;;;;;;4.65;3.00;;;30.00;99.90;;;;;;4105702;28;20055;-64
2021/09/24 07:34:04;;;;;;;5.90;3.08;;;30.00;99.90;;;;;;4104619;28;20050;-65
2021/09/24 07:36:28;;;;;;;5.55;2.70;;;30.00;99.90;;;;;;4106051;28;20050;-64
2021/09/24 07:38:32;;;;;;;4.25;2.70;;;29.90;99.90;;;;;;4087997;28;20581;-64
2021/09/24 07:41:16;;;;;;;6.35;2.70;;;29.90;99.90;;;;;;4089378;29;20118;-65
2021/09/24 07:43:24;;;;;;;3.90;2.15;;;29.90;99.90;;;;;;4092966;28;20121;-64
2021/09/24 07:45:29;;;;;;;5.18;2.42;;;29.90;99.90;;;;;;4103291;28;20149;-64
2021/09/24 07:47:34;;;;;;;3.42;1.95;;;29.90;99.90;;;;;;4089786;28;21086;-64
2021/09/24 07:49:52;;;;;;;6.70;2.53;;;29.90;99.90;;;;;;4089802;29;20411;-65
2021/09/24 07:51:56;;;;;;;2.53;2.20;;;30.10;99.90;;;;;;4085904;28;20425;-65
2021/09/24 07:54:04;;;;;;;4.35;2.10;;;30.00;99.90;;;;;;4118287;28;20108;-65
2021/09/24 07:56:09;;;;;;;2.70;2.15;;;30.00;99.90;;;;;;4137142;28;20556;-65
2021/09/24 07:58:17;;;;;;;2.47;1.90;;;29.90;99.90;;;;;;4128143;28;20081;-65
2021/09/24 08:00:37;;;;;;;5.30;1.83;;;29.90;99.90;;;;;;4071836;29;20044;-66
2021/09/24 08:02:42;;;;;;;2.38;1.80;;;30.00;99.90;;;;;;4064030;29;20047;-65
2021/09/24 08:04:46;;;;;;;3.13;2.22;;;30.00;99.90;;;;;;4064767;29;20061;-66
2021/09/24 08:06:54;;;;;;;4.35;2.10;;;29.90;99.90;;;;;;4056648;29;20453;-65
2021/09/24 08:09:17;;;;;;;3.15;2.00;;;29.90;99.90;;;;;;4062527;29;20505;-65
2021/09/24 08:11:26;;;;;;;2.90;1.83;;;29.80;99.90;;;;;;4076602;28;20059;-65
2021/09/24 08:13:36;;;;;;;3.67;2.00;;;29.80;99.90;;;;;;4120442;28;20046;-65
2021/09/24 08:15:54;;;;;;;3.13;2.30;;;29.80;99.90;;;;;;4122022;28;20487;-65
2021/09/24 08:17:59;;;;;;;3.03;2.00;;;29.80;99.90;;;;;;4128364;28;20042;-65
2021/09/24 08:20:07;;;;;;;2.08;1.85;;;29.80;99.90;;;;;;4121650;28;20046;-66
2021/09/24 08:22:11;;;;;;;4.30;1.90;;;29.90;99.90;;;;;;4119630;28;20049;-65
2021/09/24 08:24:16;;;;;;;2.85;2.33;;;29.80;99.90;;;;;;4121908;28;20829;-66
2021/09/24 08:26:22;;;;;;;6.03;2.17;;;30.00;99.90;;;;;;4119315;28;20513;-65
2021/09/24 08:28:29;;;;;;;3.72;1.92;;;29.90;99.90;;;;;;4113900;28;20053;-65
2021/09/24 08:30:37;;;;;;;3.80;2.00;;;29.90;99.90;;;;;;4121851;28;20046;-65
2021/09/24 08:32:42;;;;;;;2.65;1.95;;;30.00;99.90;;;;;;4121270;28;20097;-65
2021/09/24 08:34:47;;;;;;;2.97;2.08;;;30.00;99.90;;;;;;4089597;28;20098;-65
2021/09/24 08:37:11;;;;;;;2.97;2.30;;;30.00;99.90;;;;;;4116717;28;20050;-66
2021/09/24 08:39:15;;;;;;;2.83;2.05;;;30.10;99.90;;;;;;4186795;28;20055;-65
2021/09/24 08:41:43;;;;;;;6.90;2.50;;;30.00;99.90;;;;;;4184249;28;20704;-65
2021/09/24 08:44:03;;;;;;;;;;;30.00;99.90;;;;;;4186471;28;20048;-65
2021/09/24 08:46:20;;;;;;;4.30;2.20;;;30.00;99.90;;;;;;4119842;28;19932;-65
2021/09/24 08:48:34;;;;;;;3.85;1.75;;;29.90;99.90;;;;;;4119314;28;20045;-65
2021/09/24 08:50:39;;;;;;;3.10;2.35;;;29.90;99.90;;;;;;4126369;28;20073;-65
2021/09/24 08:52:47;;;;;;;3.53;2.00;;;29.90;99.90;;;;;;4110690;28;20050;-65
2021/09/24 08:54:51;;;;;;;4.85;2.10;;;29.90;99.90;;;;;;4106945;28;20043;-65
2021/09/24 08:56:57;;;;;;;3.05;2.25;;;29.90;99.90;;;;;;4119765;28;20046;-64
2021/09/24 08:59:11;;;;;;;5.43;2.30;;;30.00;99.90;;;;;;4122682;28;20074;-65
2021/09/24 09:02:07;;;;;;;5.90;3.90;;;30.00;99.90;;;;;;4124987;28;20066;-65
2021/09/24 09:04:12;;;;;;;;;;;30.10;99.90;;;;;;4124215;28;20050;-64
2021/09/24 09:06:23;;;;;;;4.10;3.00;;;30.10;99.90;;;;;;4122295;28;20039;-62
2021/09/24 09:08:31;;;;;;;3.95;2.50;;;30.00;99.90;;;;;;4086105;28;20066;-65
2021/09/24 09:10:52;;;;;;;5.38;2.30;;;30.00;99.90;;;;;;4083472;28;20087;-66
2021/09/24 09:13:28;;;;;;;3.90;2.30;;;30.00;99.90;;;;;;4101767;28;20082;-65
2021/09/24 09:15:37;;;;;;;6.25;2.58;;;30.00;99.90;;;;;;4089184;28;20543;-65
2021/09/24 09:18:02;;;;;;;4.38;2.40;;;29.90;99.90;;;;;;4082404;28;20051;-65
2021/09/24 09:20:12;;;;;;;3.58;2.00;;;29.90;99.90;;;;;;4092557;28;20053;-64
2021/09/24 09:22:26;;;;;;;4.70;2.22;;;29.80;99.90;;;;;;4086632;28;20070;-66
2021/09/24 09:24:31;;;;;;;4.72;2.40;;;29.70;99.90;;;;;;4127332;28;20158;-65
2021/09/24 09:27:21;;;;;;;3.47;2.47;;;29.70;99.90;;;;;;4100261;28;20062;-64
2021/09/24 09:29:30;;;;;;;3.85;2.35;;;29.80;99.90;;;;;;4101338;28;20524;-65
2021/09/24 09:31:35;;;;;;;4.20;2.45;;;29.70;99.90;;;;;;4101849;28;20050;-65
2021/09/24 09:33:42;;;;;;;6.35;2.72;;;29.80;99.90;;;;;;4088574;28;20058;-65
2021/09/24 09:36:01;;;;;;;5.63;3.08;;;29.80;99.90;;;;;;4117647;28;20046;-65
2021/09/24 09:38:06;;;;;;;4.68;2.70;;;29.80;99.90;;;;;;4108010;28;20046;-65
2021/09/24 09:40:35;;;;;;;5.35;3.40;;;29.70;99.90;;;;;;4131408;28;20096;-65
2021/09/24 09:43:32;;;;;;;3.92;3.00;;;29.70;99.90;;;;;;4120212;28;20070;-65
2021/09/24 09:45:38;;;;;;;6.40;2.88;;;29.60;99.90;;;;;;4105442;28;20050;-65
2021/09/24 09:48:06;;;;;;;4.85;2.88;;;29.70;99.90;;;;;;4084103;28;20586;-65
2021/09/24 09:50:27;;;;;;;8.07;3.25;;;29.60;99.90;;;;;;4104050;28;20051;-65
2021/09/24 09:53:28;;;;;;;9.00;3.40;;;29.60;99.90;;;;;;4056662;29;20048;-65
2021/09/24 09:56:00;;;;;;;4.53;3.25;;;29.60;99.90;;;;;;4048826;29;20418;-67
2021/09/24 09:58:57;;;;;;;4.68;2.92;;;29.50;99.90;;;;;;4030181;29;20052;-64
2021/09/24 10:01:08;;;;;;;6.00;3.08;;;29.40;99.90;;;;;;4033287;29;20391;-66
2021/09/24 10:03:20;;;;;;;4.57;3.10;;;29.40;99.90;;;;;;4034661;29;20061;-65
2021/09/24 10:05:52;;;;;;;5.00;3.45;;;29.50;99.90;;;;;;4041674;29;20566;-66
2021/09/24 10:08:15;;;;;;;7.30;4.15;;;29.50;99.90;;;;;;3996608;29;20061;-66
2021/09/24 10:11:01;;;;;;;5.45;3.67;;;29.30;99.90;;;;;;3969410;29;20472;-64
2021/09/24 10:14:02;;;;;;;4.93;3.60;;;29.40;99.90;;;;;;3925813;30;20048;-67
2021/09/24 10:16:29;;;;;;;6.75;3.38;;;29.40;99.90;;;;;;3931097;30;20139;-67
2021/09/24 10:18:40;;;;;;;4.93;3.33;;;29.40;99.90;;;;;;3918096;30;20048;-67
2021/09/24 10:20:56;;;;;;;4.70;3.70;;;29.40;99.90;;;;;;3923591;30;20060;-65
2021/09/24 10:23:13;;;;;;;5.45;3.53;;;29.50;99.90;;;;;;3923860;30;20078;-65
2021/09/24 10:25:22;;;;;;;7.07;3.90;;;29.50;99.90;;;;;;3937382;30;20079;-64
2021/09/24 10:27:38;;;;;;;5.22;3.53;;;29.60;99.90;;;;;;3927930;29;20326;-66
2021/09/24 10:29:45;;;;;;;6.15;3.95;;;29.60;99.90;;;;;;3938077;29;20066;-65
2021/09/24 10:32:09;;;;;;;8.63;4.40;;;29.50;99.90;;;;;;3986317;29;20081;-65
2021/09/24 10:34:53;;;;;;;12.23;9.55;;;29.50;99.90;;;;;;4015675;29;20060;-67
2021/09/24 10:37:17;;;;;;;13.60;9.23;;;29.60;99.90;;;;;;4010197;29;20120;-66
2021/09/24 10:39:42;;;;;;;11.90;8.55;;;29.50;99.90;;;;;;4013371;29;20053;-64
2021/09/24 10:42:15;;;;;;;11.50;7.85;;;29.60;99.90;;;;;;4022021;29;20056;-66
2021/09/24 10:44:52;;;;;;;11.40;7.68;;;29.60;99.90;;;;;;4033951;29;20464;-66
2021/09/24 10:47:08;;;;;;;9.13;7.65;;;29.60;99.90;;;;;;4056380;28;20056;-65
2021/09/24 10:49:32;;;;;;;9.05;7.07;;;29.60;99.90;;;;;;4059690;29;20059;-66
2021/09/24 10:52:14;;;;;;;10.50;6.60;;;29.50;99.90;;;;;;4100683;28;20491;-66
2021/09/24 10:54:50;;;;;;;12.20;6.50;;;29.50;99.90;;;;;;4070752;29;20050;-65
2021/09/24 10:57:21;;;;;;;9.35;6.55;;;29.50;99.90;;;;;;4076345;28;20130;-65
2021/09/24 11:00:02;;;;;;;11.30;7.55;;;29.50;99.90;;;;;;4042286;29;20081;-66
2021/09/24 11:02:38;;;;;;;10.30;8.48;;;29.50;99.90;;;;;;4194928;27;20460;-65
2021/09/24 11:04:50;;;;;;;11.20;7.95;;;29.50;99.90;;;;;;4156168;28;20571;-65
2021/09/24 11:07:55;;;;;;;12.32;7.68;;;29.40;99.90;;;;;;4195037;28;20082;-67
2021/09/24 11:10:13;;;;;;;13.60;11.05;;;29.40;99.90;;;;;;4183055;28;21055;-67
2021/09/24 11:12:20;;;;;;;24.65;19.52;;;29.50;99.90;;;;;;4152435;28;20057;-66
2021/09/24 11:14:26;;;;;;;22.33;18.15;;;29.50;99.90;;;;;;4177950;28;20048;-66
2021/09/24 11:16:44;;;;;;;23.17;16.15;;;29.50;99.90;;;;;;4171711;28;20040;-67
2021/09/24 11:18:55;;;;;;;18.75;11.23;;;29.50;99.90;;;;;;4179950;28;20053;-68
2021/09/24 11:20:59;;;;;;;11.27;9.23;;;29.40;99.90;;;;;;4183056;28;20041;-67
2021/09/24 11:23:30;;;;;;;8.20;6.15;;;29.40;99.90;;;;;;4183841;28;20090;-68
2021/09/24 11:25:36;;;;;;;10.63;5.90;;;29.40;99.90;;;;;;4182528;28;20041;-69
2021/09/24 11:27:42;;;;;;;10.25;6.00;;;29.30;99.90;;;;;;4157765;28;20132;-70